Meteo Giornale » Osservazioni meteo Stati Uniti (USA) » Havre City
ore: 19:53 - Osservazioni Meteo Havre City
Lat. 48° 32' N Lon. 109° 45' W Alt. 789 metri s.l.m.
21 °C
Sereno
Temp. 24 Ore
9 °C
26 °C
Sud/Sud-Ovest
13 Km/h
Dew point 6 °C
Umidità 37 %
Visibilità 10 Km
Il sole sorge alle ore 06:35
Il sole tramonta alle ore 20:03
| Data e Ora | Cielo e Fenomeni | T °C | DP °C | Um. % | Pres. hPa | Vis. km | Vento km/h | |
|---|---|---|---|---|---|---|---|---|
| Oggi h: 19:53 | Sereno | 21 | 6 | 37 | 1013 | 10 | S/SO 13 | |
| Oggi h: 18:53 | Sereno | 25 | 5 | 27 | 1013 | 10 | SO 14.8 | |
| Oggi h: 17:53 | Sereno | 26 | 5 | 25 | 1013 | 10 | O 13 | |
| Oggi h: 16:53 | Molto Nuvoloso | 26 | 5 | 25 | 1013 | 10 | O/SO 20.3 | |
| Oggi h: 15:53 | Sereno | 25 | 5 | 27 | 1014 | 10 | O/NO 18.5 | |
| Oggi h: 14:53 | Molto Nuvoloso | 24 | 5 | 29 | 1014 | 10 | NO 16.7 | |
| Oggi h: 13:53 | Poco Nuvoloso | 24 | 6 | 31 | 1014 | 10 | O 13 | |
| Oggi h: 12:53 | Sereno | 23 | 7 | 35 | 1015 | 10 | NO 25.9 | |
| Oggi h: 11:53 | Sereno | 22 | 7 | 37 | 1015 | 10 | O/NO 22.2 | |
| Oggi h: 10:53 | Sereno | 21 | 7 | 40 | 1015 | 10 | NO 20.3 | |
| Oggi h: 09:53 | Sereno | 19 | 7 | 45 | 1015 | 10 | O/NO 27.8 | |
| Oggi h: 09:38 | Sereno | 19 | 7 | 45 | 1015 | 10 | O/NO 29.6 | |
| Oggi h: 08:53 | Sereno | 15 | 6 | 54 | 1015 | 10 | S/SO 25.9 | |
| Oggi h: 07:53 | Sereno | 12 | 5 | 62 | 1014 | 10 | SO 25.9 | |
| Oggi h: 06:53 | Sereno | 9 | 5 | 75 | 1013 | 10 | SO 18.5 | |
| Oggi h: 05:53 | Sereno | 9 | 4 | 70 | 1012 | 10 | SO 25.9 | |
| Oggi h: 04:53 | Sereno | 11 | 4 | 61 | 1011 | 10 | O/SO 25.9 | |
| Oggi h: 03:53 | Sereno | 11 | 4 | 61 | 1011 | 10 | O/SO 33.3 | |
| Oggi h: 02:53 | Sereno | 12 | 4 | 57 | 1011 | 10 | SO 35.2 | |
| Oggi h: 01:53 | Molto Nuvoloso | 13 | 5 | 58 | 1011 | 10 | O/SO 29.6 | |
| Oggi h: 00:53 | Molto Nuvoloso | 14 | 5 | 54 | 1011 | 10 | O/SO 31.5 | |
| Ieri h: 23:53 | Coperto | 15 | 5 | 51 | 1010 | 10 | O/SO 37 | |
| Ieri h: 22:53 | Coperto | 14 | 6 | 58 | 1011 | 10 | O 14.8 | |
| Ieri h: 21:53 | Coperto | 16 | 4 | 44 | 1010 | 10 | O 18.5 | |
| Ieri h: 20:53 | Molto Nuvoloso | 16 | 6 | 51 | 1010 | 10 | O/SO 18.5 | |



